createdAt,value
2019-03-22T00:40:23.041Z,129.55
2019-03-22T01:08:52.301Z,164.67
2019-03-22T01:15:46.564Z,162.55
2019-03-22T01:26:46.889Z,161.97
2019-03-22T02:07:41.623Z,108.65
2019-03-22T02:18:59.825Z,107.85
2019-03-22T02:23:00.688Z,96.63
2019-03-22T03:57:28.063Z,92.30
2019-03-22T04:01:17.921Z,104.70
2019-03-22T04:17:32.422Z,118.55
2019-03-22T04:20:07.297Z,106.47
2019-03-22T04:22:41.880Z,99.67
2019-03-22T04:25:16.380Z,86.53
2019-03-22T04:27:51.046Z,104.00
2019-03-22T04:30:26.707Z,99.67
2019-03-22T04:33:01.152Z,87.17
2019-03-22T04:35:35.611Z,98.45
2019-03-22T04:38:10.063Z,91.10
2019-03-22T04:40:44.537Z,92.55
2019-03-22T04:43:19.328Z,73.72
2019-03-22T04:45:55.047Z,80.45
2019-03-22T04:48:37.143Z,421.22
2019-03-22T04:51:12.708Z,328.32
2019-03-22T04:53:56.127Z,270.48
2019-03-22T04:56:32.096Z,223.10
2019-03-22T04:59:18.395Z,225.55
2019-03-22T05:01:47.988Z,189.67
2019-03-22T05:04:23.977Z,184.82
2019-03-22T05:07:01.027Z,157.88
2019-03-22T05:09:37.828Z,131.65
2019-03-22T05:12:15.214Z,135.50
2019-03-22T05:14:50.340Z,126.87
2019-03-22T05:17:26.047Z,124.12
2019-03-22T05:20:02.708Z,112.15
2019-03-22T05:22:38.828Z,97.70
2019-03-22T05:25:14.071Z,104.80
2019-03-22T05:27:50.706Z,107.60
2019-03-22T05:31:07.338Z,98.67
2019-03-22T05:33:41.691Z,91.40
2019-03-22T05:36:16.176Z,80.38
2019-03-22T05:38:50.536Z,78.87
2019-03-22T05:41:25.308Z,83.20
2019-03-22T05:43:59.688Z,74.17
2019-03-22T05:46:34.231Z,93.75
2019-03-22T05:49:08.821Z,86.00
2019-03-22T05:51:43.419Z,85.60
2019-03-22T05:54:18.437Z,77.32
2019-03-22T05:56:53.414Z,71.10
2019-03-22T05:59:28.049Z,70.28
2019-03-22T06:02:02.406Z,72.30
2019-03-22T06:04:36.912Z,68.72
2019-03-22T06:07:11.210Z,69.62
2019-03-22T06:09:45.785Z,54.67
2019-03-22T06:12:20.294Z,65.28
2019-03-22T06:14:54.677Z,64.70
2019-03-22T06:17:29.572Z,66.30
2019-03-22T06:20:03.961Z,72.62
2019-03-22T06:22:38.490Z,57.73
2019-03-22T06:25:13.330Z,52.00
2019-03-22T06:27:48.060Z,65.00
2019-03-22T06:30:22.675Z,54.88
2019-03-22T06:32:57.177Z,54.45
2019-03-22T06:35:31.466Z,55.25
2019-03-22T06:38:06.096Z,51.28
2019-03-22T06:40:40.803Z,53.55
2019-03-22T06:43:15.136Z,50.00
2019-03-22T06:45:49.832Z,55.75
2019-03-22T06:48:24.429Z,48.45
2019-03-22T06:50:59.622Z,54.65
2019-03-22T06:53:34.049Z,50.08
2019-03-22T06:56:08.832Z,52.40
2019-03-22T06:58:43.881Z,67.35
2019-03-22T07:01:18.375Z,47.73
2019-03-22T07:03:52.761Z,61.53
2019-03-22T07:06:27.324Z,51.73
2019-03-22T07:09:01.917Z,64.53
2019-03-22T07:11:41.657Z,47.98
2019-03-22T07:14:15.909Z,60.78
2019-03-22T07:16:50.655Z,54.30
2019-03-22T07:19:25.301Z,53.90
2019-03-22T07:21:59.622Z,51.80
2019-03-22T07:24:34.041Z,53.83
2019-03-22T07:27:08.524Z,51.10
2019-03-22T07:29:42.926Z,55.25
2019-03-22T07:32:20.273Z,52.93
2019-03-22T07:34:54.916Z,53.35
2019-03-22T07:37:29.558Z,64.85
2019-03-22T07:40:05.465Z,81.63
2019-03-22T07:42:39.938Z,62.60
2019-03-22T07:45:15.068Z,84.32
2019-03-22T07:47:49.404Z,86.35
2019-03-22T07:50:23.873Z,80.47
2019-03-22T07:52:58.416Z,100.70
2019-03-22T07:55:32.871Z,81.17
2019-03-22T07:58:07.533Z,79.80
2019-03-22T08:00:42.264Z,84.75
2019-03-22T08:03:16.520Z,73.45
2019-03-22T08:05:51.767Z,68.22
2019-03-22T08:08:26.487Z,59.27
2019-03-22T08:11:01.216Z,63.70
2019-03-22T08:13:35.973Z,67.67
2019-03-22T08:16:10.600Z,75.57
2019-03-22T08:18:45.279Z,64.30
2019-03-22T08:21:20.069Z,71.35
2019-03-22T08:23:54.507Z,69.03
2019-03-22T08:26:29.176Z,58.42
2019-03-22T08:29:03.564Z,43.42
2019-03-22T08:31:38.484Z,50.00
2019-03-22T08:34:13.216Z,46.92
2019-03-22T08:36:47.698Z,48.52
2019-03-22T08:39:21.992Z,48.15
2019-03-22T08:41:56.659Z,49.83
2019-03-22T08:44:31.178Z,44.27
2019-03-22T08:47:05.566Z,54.58
2019-03-22T08:49:40.118Z,44.53
2019-03-22T08:52:14.597Z,41.08
2019-03-22T08:54:49.036Z,41.75
2019-03-22T08:57:25.031Z,39.45
2019-03-22T08:59:59.430Z,38.80
2019-03-22T09:02:34.075Z,35.63
2019-03-22T09:05:09.191Z,38.02
2019-03-22T09:07:45.305Z,33.85
2019-03-22T09:10:19.977Z,34.45
2019-03-22T09:12:54.532Z,34.45
2019-03-22T09:15:40.627Z,32.75
2019-03-22T09:18:05.324Z,40.20
2019-03-22T09:20:39.693Z,30.35
2019-03-22T09:23:14.906Z,31.68
2019-03-22T09:25:49.347Z,32.63
2019-03-22T09:28:23.986Z,37.88
2019-03-22T09:31:09.753Z,34.70
2019-03-22T09:33:34.620Z,27.30
2019-03-22T09:36:09.481Z,25.17
2019-03-22T09:38:44.067Z,27.10
2019-03-22T09:41:18.426Z,28.12
2019-03-22T09:43:52.936Z,29.35
2019-03-22T09:46:27.249Z,24.77
2019-03-22T09:49:02.007Z,27.55
2019-03-22T09:51:36.707Z,26.60
2019-03-22T09:54:11.231Z,23.92
2019-03-22T09:56:47.201Z,26.30
2019-03-22T09:59:22.255Z,32.48
2019-03-22T10:01:56.742Z,22.80
2019-03-22T10:04:31.750Z,19.90
2019-03-22T10:07:07.476Z,27.58
2019-03-22T10:09:42.054Z,33.80
2019-03-22T10:12:16.745Z,17.70
2019-03-22T10:14:52.408Z,29.92
2019-03-22T10:17:27.036Z,27.52
2019-03-22T10:20:01.645Z,22.40
2019-03-22T10:22:36.238Z,30.23
2019-03-22T10:25:11.269Z,26.05
2019-03-22T10:27:45.752Z,24.30
2019-03-22T10:30:21.044Z,22.27
2019-03-22T10:32:55.449Z,19.80
2019-03-22T10:35:30.116Z,23.35
2019-03-22T10:38:06.309Z,19.98
2019-03-22T10:40:40.877Z,21.60
2019-03-22T10:43:15.315Z,23.65
2019-03-22T10:45:49.892Z,19.82
2019-03-22T10:48:24.707Z,24.57
2019-03-22T10:51:00.231Z,20.43
2019-03-22T10:53:34.721Z,20.40
2019-03-22T10:56:09.111Z,17.80
2019-03-22T10:58:43.625Z,20.85
2019-03-22T11:01:18.315Z,20.05
2019-03-22T11:03:52.806Z,20.70
2019-03-22T11:06:27.400Z,20.65
2019-03-22T11:09:01.835Z,21.07
2019-03-22T11:11:37.752Z,16.70
2019-03-22T11:14:12.326Z,16.17
2019-03-22T11:16:46.915Z,17.32
2019-03-22T11:19:21.946Z,20.85
2019-03-22T11:21:56.560Z,19.05
2019-03-22T11:24:31.335Z,16.90
2019-03-22T11:27:06.519Z,18.77
2019-03-22T11:29:41.237Z,18.42
2019-03-22T11:32:16.563Z,19.42
2019-03-22T11:34:51.374Z,13.53
2019-03-22T11:37:25.993Z,21.75
2019-03-22T11:40:00.499Z,20.30
2019-03-22T11:42:35.442Z,20.10
2019-03-22T11:45:12.687Z,16.37
2019-03-22T11:47:47.600Z,20.02
2019-03-22T11:50:22.422Z,20.80
2019-03-22T11:52:57.459Z,12.60
2019-03-22T11:55:32.338Z,15.88
2019-03-22T11:58:07.665Z,18.45
2019-03-22T12:00:42.302Z,14.20
2019-03-22T12:03:17.192Z,14.98
2019-03-22T12:05:52.181Z,13.68
2019-03-22T12:08:27.636Z,13.70
2019-03-22T12:11:02.693Z,13.70
2019-03-22T12:13:37.988Z,14.83
2019-03-22T12:16:12.679Z,15.60
2019-03-22T12:18:47.524Z,17.00
2019-03-22T12:21:22.447Z,16.23
2019-03-22T12:23:57.510Z,14.78
2019-03-22T12:26:32.216Z,15.13
2019-03-22T12:29:07.025Z,16.45
2019-03-22T12:31:42.145Z,16.57
2019-03-22T12:34:16.663Z,15.50
2019-03-22T12:36:51.463Z,15.03
2019-03-22T12:39:25.807Z,12.75
2019-03-22T12:42:01.581Z,13.78
2019-03-22T12:44:36.506Z,14.95
2019-03-22T12:47:11.008Z,13.58
2019-03-22T12:49:45.457Z,13.45
2019-03-22T12:52:20.192Z,14.78
2019-03-22T12:54:54.988Z,12.58
2019-03-22T12:57:30.242Z,13.35
2019-03-22T13:00:05.125Z,15.60
2019-03-22T13:02:42.462Z,13.88
2019-03-22T13:05:16.699Z,13.85
2019-03-22T13:07:51.445Z,12.28
2019-03-22T13:10:27.625Z,13.03
2019-03-22T13:13:03.305Z,11.25
2019-03-22T13:15:38.316Z,10.98
2019-03-22T13:18:13.385Z,14.15
2019-03-22T13:20:51.018Z,11.53
2019-03-22T13:23:25.704Z,15.00
2019-03-22T13:26:00.721Z,15.03
2019-03-22T13:28:35.256Z,17.00
2019-03-22T13:31:11.691Z,9.53
2019-03-22T13:33:47.052Z,13.95
2019-03-22T13:36:22.096Z,15.13
2019-03-22T13:38:56.926Z,11.78
2019-03-22T13:41:32.403Z,13.68
2019-03-22T13:44:07.683Z,12.47
2019-03-22T13:46:43.570Z,15.80
2019-03-22T13:49:18.319Z,12.55
2019-03-22T13:51:53.301Z,11.75
2019-03-22T13:54:28.253Z,15.00
2019-03-22T13:57:03.468Z,14.30
2019-03-22T13:59:38.608Z,14.63
2019-03-22T14:02:13.555Z,13.68
2019-03-22T14:04:48.555Z,14.07
2019-03-22T14:07:23.886Z,14.75
2019-03-22T14:09:58.350Z,17.32
2019-03-22T14:12:36.933Z,16.17
2019-03-22T14:15:10.166Z,16.10
2019-03-22T14:17:46.495Z,15.18
2019-03-22T14:20:21.564Z,16.32
2019-03-22T14:22:56.643Z,18.25
2019-03-22T14:25:31.267Z,13.58
2019-03-22T14:28:05.725Z,14.40
2019-03-22T14:30:40.306Z,20.90
2019-03-22T14:33:14.696Z,15.75
2019-03-22T14:35:49.339Z,15.78
2019-03-22T14:38:23.749Z,15.78
2019-03-22T14:40:58.183Z,14.83
2019-03-22T14:43:32.741Z,13.72
2019-03-22T14:46:07.246Z,17.57
2019-03-22T14:48:41.742Z,14.90
2019-03-22T14:51:16.339Z,16.00
2019-03-22T14:53:50.794Z,15.68
2019-03-22T14:56:25.410Z,14.53
2019-03-22T14:58:59.925Z,13.95
2019-03-22T15:01:34.474Z,19.73
2019-03-22T15:04:11.299Z,17.98
2019-03-22T15:06:45.694Z,18.70
2019-03-22T15:09:20.044Z,15.55
2019-03-22T15:11:54.962Z,21.55
2019-03-22T15:14:48.134Z,18.20
2019-03-22T15:17:34.343Z,14.60
2019-03-22T15:20:40.186Z,14.25
2019-03-22T15:23:32.991Z,20.97
2019-03-22T15:26:26.252Z,19.30
2019-03-22T15:29:25.511Z,14.65
2019-03-22T15:32:14.080Z,19.92
2019-03-22T15:35:07.571Z,16.55
2019-03-22T15:37:59.347Z,16.73
2019-03-22T15:40:34.332Z,17.60
2019-03-22T15:43:09.185Z,16.45
2019-03-22T15:45:43.822Z,20.50
2019-03-22T15:48:18.260Z,20.32
2019-03-22T15:50:52.909Z,15.68
2019-03-22T15:53:28.322Z,15.72
2019-03-22T15:56:02.801Z,18.98
2019-03-22T15:58:37.276Z,17.98
2019-03-22T16:01:12.570Z,20.35
2019-03-22T16:03:47.164Z,19.70
2019-03-22T16:06:22.174Z,18.85
2019-03-22T16:09:59.771Z,22.48
2019-03-22T16:12:37.719Z,17.90
2019-03-22T16:15:13.083Z,23.50
2019-03-22T16:21:00.065Z,17.90
2019-03-22T16:23:33.145Z,18.87
2019-03-22T16:26:07.539Z,18.45
2019-03-22T16:28:42.112Z,21.02
2019-03-22T16:31:16.519Z,20.80
2019-03-22T16:33:54.707Z,21.33
2019-03-22T16:36:27.354Z,20.00
2019-03-22T16:39:01.844Z,23.40
2019-03-22T16:41:37.809Z,19.45
2019-03-22T16:44:12.504Z,19.37
2019-03-22T16:46:47.413Z,23.02
2019-03-22T16:49:22.160Z,23.60
2019-03-22T16:51:56.595Z,21.85
2019-03-22T16:54:31.010Z,24.80
2019-03-22T16:57:06.493Z,24.75
2019-03-22T16:59:40.837Z,21.90
2019-03-22T17:02:15.777Z,18.50
2019-03-22T17:04:50.484Z,23.60
2019-03-22T17:07:25.078Z,22.93
2019-03-22T17:09:59.844Z,24.70
2019-03-22T17:12:34.525Z,21.48
2019-03-22T17:15:09.855Z,21.52
2019-03-22T17:17:44.383Z,21.82
2019-03-22T17:20:19.366Z,26.00
2019-03-22T17:22:53.914Z,27.32
2019-03-22T17:25:28.642Z,23.83
2019-03-22T17:28:03.472Z,26.07
2019-03-22T17:30:38.054Z,27.90
2019-03-22T17:33:12.798Z,22.07
2019-03-22T17:35:47.524Z,23.75
2019-03-22T17:38:22.096Z,26.00
2019-03-22T17:40:56.599Z,26.57
2019-03-22T17:43:31.628Z,22.80
2019-03-22T17:46:06.521Z,26.57
2019-03-22T17:48:40.982Z,27.13
2019-03-22T17:51:18.457Z,26.70
2019-03-22T17:53:52.886Z,24.52
2019-03-22T17:56:27.661Z,25.62
2019-03-22T17:59:02.170Z,25.15
2019-03-22T18:01:36.762Z,29.32
2019-03-22T18:04:11.510Z,26.20
2019-03-22T18:06:46.300Z,29.40
2019-03-22T18:09:20.919Z,26.85
2019-03-22T18:11:55.826Z,24.98
2019-03-22T18:14:30.965Z,29.32
2019-03-22T18:17:05.888Z,24.25
2019-03-22T18:19:40.610Z,27.75
2019-03-22T18:22:15.207Z,30.02
2019-03-22T18:24:49.953Z,29.00
2019-03-22T18:27:24.631Z,28.38
2019-03-22T18:29:59.413Z,26.05
2019-03-22T18:32:34.171Z,27.15
2019-03-22T18:35:09.611Z,27.48
2019-03-22T18:37:44.474Z,28.50
2019-03-22T18:40:19.091Z,27.62
2019-03-22T18:42:53.719Z,28.95
2019-03-22T18:45:28.688Z,30.57
2019-03-22T18:48:03.388Z,30.48
2019-03-22T18:50:37.654Z,27.80
2019-03-22T18:53:12.012Z,30.25
2019-03-22T18:55:46.694Z,32.45
2019-03-22T18:58:21.095Z,30.65
2019-03-22T19:00:55.504Z,33.18
2019-03-22T19:03:30.222Z,32.73
2019-03-22T19:06:05.107Z,30.60
2019-03-22T19:08:39.707Z,30.08
2019-03-22T19:11:14.643Z,30.08
2019-03-22T19:13:49.115Z,31.27
2019-03-22T19:16:24.013Z,34.25
2019-03-22T19:18:58.639Z,29.87
2019-03-22T19:21:33.109Z,33.45
2019-03-22T19:24:07.617Z,32.75
2019-03-22T19:26:42.254Z,33.58
2019-03-22T19:29:16.801Z,30.85
2019-03-22T19:31:51.390Z,30.65
2019-03-22T19:34:26.313Z,30.57
2019-03-22T19:37:00.987Z,28.40
2019-03-22T19:39:35.856Z,31.33
2019-03-22T19:42:10.256Z,31.12
2019-03-22T19:44:44.860Z,29.60
2019-03-22T19:47:19.332Z,29.57
2019-03-22T19:49:53.759Z,29.07
2019-03-22T19:52:28.388Z,36.30
2019-03-22T19:55:02.791Z,30.68
2019-03-22T19:57:37.261Z,32.88
2019-03-22T20:00:12.933Z,32.40
2019-03-22T20:02:49.163Z,34.40
2019-03-22T20:05:34.918Z,32.90
2019-03-22T20:08:11.978Z,29.87
2019-03-22T20:10:45.796Z,30.60
2019-03-22T20:13:22.135Z,31.65
2019-03-22T20:15:56.400Z,28.60
2019-03-22T20:18:32.028Z,32.42
2019-03-22T20:21:06.509Z,31.10
2019-03-22T20:23:41.127Z,30.95
2019-03-22T20:26:15.491Z,33.15
2019-03-22T20:28:50.031Z,31.65
2019-03-22T20:31:24.659Z,31.12
2019-03-22T20:33:59.506Z,35.83
2019-03-22T20:36:34.452Z,30.12
2019-03-22T20:39:10.095Z,27.75
2019-03-22T20:41:44.904Z,29.55
2019-03-22T20:44:19.692Z,31.20
2019-03-22T20:46:54.270Z,33.53
2019-03-22T20:49:28.832Z,30.23
2019-03-22T20:52:04.460Z,29.42
2019-03-22T20:54:39.141Z,30.72
2019-03-22T20:57:13.750Z,31.80
2019-03-22T20:59:48.381Z,29.57
2019-03-22T21:02:22.891Z,35.70
2019-03-22T21:04:57.335Z,31.37
2019-03-22T21:07:31.713Z,32.75
2019-03-22T21:10:06.324Z,34.20
2019-03-22T21:12:40.944Z,29.27
2019-03-22T21:15:23.743Z,29.92
2019-03-22T21:17:52.273Z,33.25
2019-03-22T21:20:26.826Z,30.92
2019-03-22T21:23:01.632Z,29.42
2019-03-22T21:25:36.357Z,31.48
2019-03-22T21:28:11.173Z,28.45
2019-03-22T21:30:45.750Z,29.57
2019-03-22T21:33:20.254Z,29.57
2019-03-22T21:35:54.883Z,30.60
2019-03-22T21:38:29.449Z,31.85
2019-03-22T21:41:04.330Z,31.68
2019-03-22T21:43:38.751Z,30.82
2019-03-22T21:46:13.117Z,33.85
2019-03-22T21:48:47.692Z,31.73
2019-03-22T21:51:22.216Z,31.12
2019-03-22T21:53:56.775Z,30.50
2019-03-22T21:56:31.521Z,28.98
2019-03-22T21:59:06.407Z,34.48
2019-03-22T22:01:41.089Z,30.90
2019-03-22T22:04:15.913Z,32.93
2019-03-22T22:06:50.457Z,29.87
2019-03-22T22:09:25.466Z,28.73
2019-03-22T22:12:00.146Z,32.10
2019-03-22T22:14:40.715Z,33.75
2019-03-22T22:17:11.299Z,34.38
2019-03-22T22:19:45.879Z,29.32
2019-03-22T22:22:20.473Z,28.20
2019-03-22T22:24:55.443Z,32.75
2019-03-22T22:27:29.835Z,28.98
2019-03-22T22:30:04.476Z,38.05
2019-03-22T22:32:39.065Z,33.53
2019-03-22T22:35:13.696Z,30.37
2019-03-22T22:37:49.230Z,34.75
2019-03-22T22:40:24.164Z,33.25
2019-03-22T22:42:58.696Z,33.92
2019-03-22T22:45:33.977Z,36.88
2019-03-22T22:48:08.579Z,32.75
2019-03-22T22:50:43.767Z,32.85
2019-03-22T22:53:18.307Z,31.90
2019-03-22T22:55:52.869Z,33.33
2019-03-22T22:58:27.366Z,35.90
2019-03-22T23:01:02.029Z,32.00
2019-03-22T23:03:36.561Z,33.90
2019-03-22T23:06:11.528Z,35.70
2019-03-22T23:08:46.403Z,35.45
2019-03-22T23:11:20.859Z,34.95
2019-03-22T23:13:55.495Z,34.95
2019-03-22T23:16:30.148Z,33.92
2019-03-22T23:19:04.487Z,35.13
2019-03-22T23:21:39.115Z,35.43
2019-03-22T23:24:13.741Z,35.55
2019-03-22T23:26:48.292Z,35.83
2019-03-22T23:29:23.235Z,32.80
2019-03-22T23:31:58.265Z,34.95
2019-03-22T23:34:32.847Z,33.53
2019-03-22T23:37:07.464Z,36.20
2019-03-22T23:39:42.131Z,34.98
2019-03-22T23:42:16.937Z,37.42
2019-03-22T23:44:51.472Z,34.88
2019-03-22T23:47:26.037Z,34.83
2019-03-22T23:50:00.489Z,37.48
2019-03-22T23:52:35.260Z,37.90
2019-03-22T23:55:10.183Z,38.85
2019-03-22T23:57:44.890Z,38.83
